Alice Moran — WYN6272 — position and weather

sailwx.info

Track history (hours):
 
Tides and Currents Weather Stations Pressure Air Temp Water Temp Dewpoint Dewpoint Depression Visibility Wind Speed Wind Dir Waves Ship Positions

Alice Moran

Owner: MORAN TOWING CORPORATION, New Canaan, CT. More information available from US FCC via Universal Licensing System and Coast Guard Vessel Documentation Center.

Last reported at 2018-Aug-14 00:31 UTC. Time now 2018-Aug-16 08:44 UTC.
Position N 25°35' W 080°02'.

Length 38 m; draft 4.8 m.

Type: Tow > 200 m length. MMSI: 338724000.

Date/timePositionNaut miles runAvg speedWind from/ knotsBaromVisibWave heightAir tempDewpointWater temp
2018-Aug-14 00:31N 25°35' W 080°02'1 7.9
2018-Aug-14 00:27N 25°36' W 080°02'3 7.8
2018-Aug-14 00:00N 25°39' W 080°02'4 7.7
2018-Aug-13 23:30N 25°43' W 080°01'4 7.7
2018-Aug-13 23:00N 25°47' W 080°01'4 7.7
2018-Aug-13 22:30N 25°51' W 080°01'4 7.6
2018-Aug-13 22:00N 25°55' W 080°01'4 7.5
2018-Aug-13 21:30N 25°58' W 080°01'4 7.6
2018-Aug-13 21:00N 26°02' W 080°01'4 7.6
2018-Aug-13 20:30N 26°06' W 080°00'7 8.2
2018-Aug-13 19:42N 26°13' W 079°60'2 8.4
2018-Aug-13 19:26N 26°15' W 079°60'41 8.1
2018-Aug-13 14:20N 26°56' W 079°59'3 7.8
2018-Aug-13 14:00N 26°59' W 079°59'347 8.9
2018-Aug-11 22:48N 32°46' W 079°53'1 4.0
2018-Aug-11 22:30N 32°47' W 079°54'3 0.1
2018-Aug-09 18:34N 32°50' W 079°56'1 6.5
2018-Aug-09 18:26N 32°51' W 079°56'1 0.2
2018-Aug-09 13:36N 32°50' W 079°56'0 0.0
2018-Aug-09 13:30N 32°50' W 079°56'0 0.0
2018-Aug-09 12:00N 32°50' W 079°56'0 0.0
2018-Aug-08 16:44N 32°50' W 079°56'1 5.8
2018-Aug-08 16:29N 32°49' W 079°55'3 6.4
2018-Aug-08 15:56N 32°46' W 079°52'  
2018-Aug-05 13:48N 39°35' W 074°01'2 7.9
2018-Aug-05 13:30N 39°37' W 074°01'4 7.9
2018-Aug-05 12:58N 39°42' W 073°60'216 6.5
2018-Aug-04 03:52N 42°18' W 070°42'2 6.7
2018-Aug-04 03:30N 42°19' W 070°45'3 6.6
2018-Aug-04 03:00N 42°21' W 070°49'3 6.4
2018-Aug-04 02:30N 42°23' W 070°53'3 6.5
2018-Aug-04 02:00N 42°21' W 070°56'3 6.3
2018-Aug-04 01:30N 42°20' W 071°00'2 4.9
2018-Aug-04 01:00N 42°22' W 071°03'  
Track history (hours):
 
Tides and Currents Weather Stations Pressure Air Temp Water Temp Dewpoint Dewpoint Depression Visibility Wind Speed Wind Dir Waves Ship Positions

Alice Moran

Owner: MORAN TOWING CORPORATION, New Canaan, CT. More information available from US FCC via Universal Licensing System and Coast Guard Vessel Documentation Center.

Last reported at 2018-Aug-14 00:31 UTC. Time now 2018-Aug-16 08:44 UTC.
Position N 25°35' W 080°02'.

Length 38 m; draft 4.8 m.

Type: Tow > 200 m length. MMSI: 338724000.

Date/timePositionNaut miles runAvg speedWind from/ knotsBaromVisibWave heightAir tempDewpointWater temp
2018-Aug-14 00:31N 25°35' W 080°02'1 7.9
2018-Aug-14 00:27N 25°36' W 080°02'3 7.8
2018-Aug-14 00:00N 25°39' W 080°02'4 7.7
2018-Aug-13 23:30N 25°43' W 080°01'4 7.7
2018-Aug-13 23:00N 25°47' W 080°01'4 7.7
2018-Aug-13 22:30N 25°51' W 080°01'4 7.6
2018-Aug-13 22:00N 25°55' W 080°01'4 7.5
2018-Aug-13 21:30N 25°58' W 080°01'4 7.6
2018-Aug-13 21:00N 26°02' W 080°01'4 7.6
2018-Aug-13 20:30N 26°06' W 080°00'7 8.2
2018-Aug-13 19:42N 26°13' W 079°60'2 8.4
2018-Aug-13 19:26N 26°15' W 079°60'41 8.1
2018-Aug-13 14:20N 26°56' W 079°59'3 7.8
2018-Aug-13 14:00N 26°59' W 079°59'347 8.9
2018-Aug-11 22:48N 32°46' W 079°53'1 4.0
2018-Aug-11 22:30N 32°47' W 079°54'3 0.1
2018-Aug-09 18:34N 32°50' W 079°56'1 6.5
2018-Aug-09 18:26N 32°51' W 079°56'1 0.2
2018-Aug-09 13:36N 32°50' W 079°56'0 0.0
2018-Aug-09 13:30N 32°50' W 079°56'0 0.0
2018-Aug-09 12:00N 32°50' W 079°56'0 0.0
2018-Aug-08 16:44N 32°50' W 079°56'1 5.8
2018-Aug-08 16:29N 32°49' W 079°55'3 6.4
2018-Aug-08 15:56N 32°46' W 079°52'  
2018-Aug-05 13:48N 39°35' W 074°01'2 7.9
2018-Aug-05 13:30N 39°37' W 074°01'4 7.9
2018-Aug-05 12:58N 39°42' W 073°60'216 6.5
2018-Aug-04 03:52N 42°18' W 070°42'2 6.7
2018-Aug-04 03:30N 42°19' W 070°45'3 6.6
2018-Aug-04 03:00N 42°21' W 070°49'3 6.4
2018-Aug-04 02:30N 42°23' W 070°53'3 6.5
2018-Aug-04 02:00N 42°21' W 070°56'3 6.3
2018-Aug-04 01:30N 42°20' W 071°00'2 4.9
2018-Aug-04 01:00N 42°22' W 071°03'  

Dump ship's entire track history